Time;durP1;ratioP1;P1;durP2;ratioP2;P2;SDS_P1;SDS_P2;PMS_P1;PMS_P2;Temp;Humidity;BMP_temperature;BMP_pressure;BME280_temperature;BME280_humidity;BME280_pressure;Samples;Min_cycle;Max_cycle;Signal;HPM_P1;HPM_P2
2022/05/24 00:01:37;;;;;;;8.98;6.20;;;13.50;99.90;;;;;;5023967;28;20731;-87
2022/05/24 00:04:02;;;;;;;11.45;6.20;;;13.50;99.90;;;;;;5024557;28;20059;-87
2022/05/24 00:06:30;;;;;;;9.90;6.03;;;13.50;99.90;;;;;;5024788;28;20045;-87
2022/05/24 00:08:56;;;;;;;9.63;6.78;;;13.50;99.90;;;;;;5022043;28;20040;-87
2022/05/24 00:11:22;;;;;;;10.75;6.82;;;13.50;99.90;;;;;;5029071;28;20059;-88
2022/05/24 00:13:48;;;;;;;11.48;7.47;;;13.50;99.90;;;;;;5033981;28;20451;-85
2022/05/24 00:16:13;;;;;;;9.63;7.50;;;13.50;99.90;;;;;;5062891;28;20045;-87
2022/05/24 00:18:39;;;;;;;12.23;7.55;;;13.40;99.90;;;;;;5066323;28;20118;-86
2022/05/24 00:21:06;;;;;;;12.15;7.88;;;13.30;99.90;;;;;;5038107;28;20045;-87
2022/05/24 00:23:35;;;;;;;11.27;8.90;;;13.30;99.90;;;;;;5021956;28;20058;-87
2022/05/24 00:26:05;;;;;;;13.32;9.52;;;13.30;99.90;;;;;;5043395;28;20959;-87
2022/05/24 00:28:32;;;;;;;13.50;11.15;;;13.30;99.90;;;;;;5034937;28;20128;-87
2022/05/24 00:30:59;;;;;;;14.07;10.82;;;13.20;99.90;;;;;;5054163;28;20048;-86
2022/05/24 00:33:28;;;;;;;13.68;10.48;;;13.20;99.90;;;;;;5023666;28;20408;-87
2022/05/24 00:35:55;;;;;;;16.30;9.85;;;13.00;99.90;;;;;;5044959;28;20056;-86
2022/05/24 00:38:28;;;;;;;12.93;9.07;;;12.90;99.90;;;;;;5025074;28;20081;-87
2022/05/24 00:41:02;;;;;;;11.13;8.73;;;12.80;99.90;;;;;;5021746;28;20037;-86
2022/05/24 00:43:33;;;;;;;11.88;8.80;;;12.80;99.90;;;;;;5057687;28;20037;-87
2022/05/24 00:46:04;;;;;;;13.23;9.02;;;12.70;99.90;;;;;;5029752;28;20067;-87
2022/05/24 00:48:40;;;;;;;12.93;7.97;;;12.60;99.90;;;;;;5068205;28;20394;-87
2022/05/24 00:51:08;;;;;;;11.15;8.82;;;12.50;99.90;;;;;;5028272;28;20566;-87
2022/05/24 00:53:40;;;;;;;10.60;8.35;;;12.50;99.90;;;;;;5025210;28;20059;-86
2022/05/24 00:56:21;;;;;;;11.50;8.63;;;12.40;99.90;;;;;;5052137;28;20324;-86
2022/05/24 00:58:56;;;;;;;10.88;8.45;;;12.40;99.90;;;;;;5032989;28;20036;-86
2022/05/24 01:01:37;;;;;;;12.50;8.50;;;12.40;99.90;;;;;;5044330;28;20036;-87
2022/05/24 01:04:03;;;;;;;12.25;9.20;;;12.30;99.90;;;;;;5047485;28;20064;-87
2022/05/24 01:06:33;;;;;;;12.10;9.20;;;12.20;99.90;;;;;;5048045;28;20036;-87
2022/05/24 01:09:03;;;;;;;12.25;8.73;;;12.20;99.90;;;;;;5030951;28;20213;-87
2022/05/24 01:11:32;;;;;;;12.90;9.05;;;12.10;99.90;;;;;;5026864;28;20695;-87
2022/05/24 01:14:00;;;;;;;15.43;9.57;;;12.00;99.90;;;;;;5031043;28;20266;-87
2022/05/24 01:16:25;;;;;;;12.60;9.35;;;12.10;99.90;;;;;;5061884;28;20388;-86
2022/05/24 01:18:51;;;;;;;13.20;9.55;;;12.00;99.90;;;;;;5025270;28;20036;-86
2022/05/24 01:21:18;;;;;;;14.18;10.02;;;11.90;99.90;;;;;;5036487;28;20040;-86
2022/05/24 01:24:08;;;;;;;14.05;10.70;;;11.90;99.90;;;;;;5024333;28;20354;-86
2022/05/24 01:26:45;;;;;;;12.70;9.63;;;11.80;99.90;;;;;;5060559;28;20426;-87
2022/05/24 01:29:13;;;;;;;13.25;10.07;;;11.80;99.90;;;;;;5029749;28;20067;-86
2022/05/24 01:37:10;;;;;;;14.00;10.90;;;11.70;99.90;;;;;;5068935;28;20337;-86
2022/05/24 01:39:38;;;;;;;14.32;10.95;;;11.70;99.90;;;;;;5025587;28;20033;-86
2022/05/24 01:42:04;;;;;;;15.63;10.25;;;11.60;99.90;;;;;;5031314;28;20510;-86
2022/05/24 01:45:12;;;;;;;16.92;11.30;;;11.70;99.90;;;;;;5030574;28;20047;-86
2022/05/24 01:47:40;;;;;;;13.55;9.90;;;11.70;1.00;;;;;;5027977;28;20557;-86
2022/05/24 01:50:11;;;;;;;15.95;11.35;;;11.70;1.00;;;;;;5020660;28;20115;-86
2022/05/24 01:52:43;;;;;;;17.23;10.50;;;11.70;1.00;;;;;;5017383;28;20037;-86
2022/05/24 01:55:15;;;;;;;13.77;10.70;;;11.70;1.00;;;;;;5045701;28;20032;-86
2022/05/24 01:57:49;;;;;;;16.88;11.52;;;11.70;1.00;;;;;;5023541;28;20041;-86
2022/05/24 02:00:16;;;;;;;13.15;10.38;;;11.70;1.00;;;;;;5056191;28;20064;-86
2022/05/24 02:02:43;;;;;;;17.67;10.57;;;11.80;1.00;;;;;;5022398;28;20105;-86
2022/05/24 02:05:09;;;;;;;21.83;11.30;;;11.90;1.00;;;;;;5024110;28;20068;-86
2022/05/24 02:07:35;;;;;;;17.48;10.27;;;11.90;1.00;;;;;;5029635;28;20562;-86
2022/05/24 02:10:01;;;;;;;15.07;10.73;;;12.00;1.00;;;;;;5025942;28;20112;-86
2022/05/24 02:12:44;;;;;;;13.77;9.75;;;12.00;1.00;;;;;;5053572;28;20364;-86
2022/05/24 02:15:13;;;;;;;13.70;10.52;;;12.00;1.00;;;;;;5040881;28;20072;-86
2022/05/24 02:18:01;;;;;;;19.75;10.18;;;12.00;1.00;;;;;;5044582;28;20076;-86
2022/05/24 02:20:43;;;;;;;13.25;9.98;;;12.10;1.00;;;;;;5023829;28;20032;-86
2022/05/24 02:23:11;;;;;;;15.63;9.85;;;12.10;1.00;;;;;;5038091;28;20037;-86
2022/05/24 02:25:36;;;;;;;18.80;10.20;;;12.20;1.00;;;;;;5021072;28;20041;-86
2022/05/24 02:28:03;;;;;;;15.55;10.32;;;12.20;1.00;;;;;;5021935;28;20033;-86
2022/05/24 02:30:31;;;;;;;14.70;9.77;;;12.30;1.00;;;;;;5052849;28;20130;-86
2022/05/24 02:32:57;;;;;;;13.77;10.15;;;12.40;1.00;;;;;;5027019;28;20087;-87
2022/05/24 02:35:23;;;;;;;17.98;10.27;;;12.40;1.00;;;;;;5048275;28;20114;-86
2022/05/24 02:37:48;;;;;;;16.73;10.38;;;12.50;1.00;;;;;;5028871;28;20123;-86
2022/05/24 02:42:59;;;;;;;16.67;10.80;;;12.50;1.00;;;;;;5068217;28;20044;-86
2022/05/24 02:45:25;;;;;;;16.98;11.90;;;12.60;1.00;;;;;;5024557;28;20408;-87
2022/05/24 02:47:51;;;;;;;19.88;13.38;;;12.70;1.00;;;;;;5024218;28;20032;-86
2022/05/24 02:50:17;;;;;;;16.55;12.40;;;12.70;1.00;;;;;;5020978;28;20383;-86
2022/05/24 02:52:43;;;;;;;20.98;13.18;;;12.70;1.00;;;;;;5054071;28;20452;-86
2022/05/24 02:55:10;;;;;;;22.63;13.70;;;12.80;1.00;;;;;;5038517;28;20045;-86
2022/05/24 02:57:37;;;;;;;19.80;13.73;;;12.80;1.00;;;;;;5024613;28;20045;-87
2022/05/24 03:00:06;;;;;;;24.67;16.00;;;12.80;1.00;;;;;;5036785;28;20078;-86
2022/05/24 03:02:31;;;;;;;25.75;15.65;;;12.90;2.80;;;;;;5069560;28;20107;-86
2022/05/24 03:04:59;;;;;;;24.08;16.20;;;13.00;1.00;;;;;;5041990;28;20037;-86
2022/05/24 03:10:09;;;;;;;23.35;16.88;;;13.00;1.00;;;;;;5039033;28;20138;-86
2022/05/24 03:15:21;;;;;;;24.98;17.80;;;13.00;1.10;;;;;;5065200;28;20051;-86
2022/05/24 03:17:47;;;;;;;33.13;21.23;;;13.00;1.00;;;;;;5027765;28;20036;-85
2022/05/24 03:20:13;;;;;;;27.27;20.50;;;13.10;1.00;;;;;;5028883;28;20394;-86
2022/05/24 03:22:38;;;;;;;32.72;20.90;;;13.10;9.00;;;;;;5022380;28;20041;-86
2022/05/24 03:25:04;;;;;;;30.23;21.52;;;13.10;1.00;;;;;;5022757;28;20037;-86
2022/05/24 03:27:30;;;;;;;32.78;22.35;;;13.20;1.00;;;;;;5024470;28;20033;-86
2022/05/24 03:29:56;;;;;;;32.13;22.77;;;13.10;1.00;;;;;;5024969;28;20060;-86
2022/05/24 03:32:22;;;;;;;34.03;24.02;;;13.10;1.00;;;;;;5039137;28;20033;-86
2022/05/24 03:34:48;;;;;;;32.53;23.42;;;13.20;1.00;;;;;;5023487;28;20040;-86
2022/05/24 03:37:14;;;;;;;38.42;26.17;;;13.20;1.00;;;;;;5040831;28;20049;-86
2022/05/24 03:39:39;;;;;;;40.60;25.52;;;13.20;21.50;;;;;;5049757;28;20411;-86
2022/05/24 03:42:06;;;;;;;37.25;25.23;;;13.30;53.70;;;;;;5029775;28;20440;-86
2022/05/24 03:44:32;;;;;;;39.65;26.35;;;13.30;42.00;;;;;;5036329;28;20125;-86
2022/05/24 03:46:58;;;;;;;40.80;27.98;;;13.30;75.50;;;;;;5044023;28;20174;-86
2022/05/24 03:49:27;;;;;;;40.03;27.75;;;13.40;52.80;;;;;;5048094;28;20116;-92
2022/05/24 03:51:53;;;;;;;47.38;30.10;;;13.40;63.20;;;;;;5051527;28;20059;-89
2022/05/24 03:54:18;;;;;;;44.08;29.63;;;13.50;59.00;;;;;;5043416;28;20037;-87
2022/05/24 03:59:28;;;;;;;50.03;31.20;;;13.50;68.40;;;;;;5042417;28;20420;-87
2022/05/24 04:01:54;;;;;;;47.30;31.00;;;13.50;99.90;;;;;;5024287;28;20044;-87
2022/05/24 04:04:20;;;;;;;44.47;29.73;;;13.50;99.90;;;;;;5018524;28;20041;-86
2022/05/24 04:06:48;;;;;;;46.55;30.67;;;13.60;99.70;;;;;;5038605;28;20036;-87
2022/05/24 04:09:14;;;;;;;45.75;30.30;;;13.50;94.50;;;;;;5049025;28;20048;-87
2022/05/24 04:11:40;;;;;;;45.47;30.33;;;13.60;93.20;;;;;;5040251;28;20045;-86
2022/05/24 04:14:05;;;;;;;46.38;30.90;;;13.60;82.00;;;;;;5045608;28;20451;-86
2022/05/24 04:16:31;;;;;;;45.38;30.50;;;13.60;69.20;;;;;;5053121;28;20194;-86
2022/05/24 04:18:57;;;;;;;44.80;29.38;;;13.70;90.60;;;;;;5037893;28;20071;-87
2022/05/24 04:21:23;;;;;;;43.47;29.17;;;13.60;67.70;;;;;;5024454;28;20127;-86
2022/05/24 04:23:48;;;;;;;43.20;29.52;;;13.60;67.50;;;;;;5025620;28;20041;-86
2022/05/24 04:26:14;;;;;;;45.63;29.58;;;13.70;63.10;;;;;;5024346;28;20114;-87
2022/05/24 04:28:40;;;;;;;44.53;29.25;;;13.70;65.30;;;;;;5026108;28;20255;-86
2022/05/24 04:31:05;;;;;;;42.72;29.02;;;13.70;43.80;;;;;;5044987;28;20040;-86
2022/05/24 04:33:31;;;;;;;46.47;29.85;;;13.80;26.20;;;;;;5023990;28;20037;-87
2022/05/24 04:35:57;;;;;;;39.35;26.85;;;13.80;23.40;;;;;;5027090;28;20191;-86
2022/05/24 04:38:23;;;;;;;34.78;25.55;;;13.80;1.00;;;;;;5024665;28;20051;-86
2022/05/24 04:43:36;;;;;;;36.45;25.42;;;14.00;1.00;;;;;;5039622;28;20048;-86
2022/05/24 04:46:03;;;;;;;37.20;26.80;;;13.90;1.00;;;;;;5022389;28;20582;-86
2022/05/24 04:48:29;;;;;;;39.70;25.23;;;13.90;1.00;;;;;;5024379;28;20149;-86
2022/05/24 04:50:56;;;;;;;34.65;25.98;;;13.90;1.00;;;;;;5027392;28;20485;-86
2022/05/24 04:53:24;;;;;;;36.85;26.15;;;14.00;1.00;;;;;;5023602;28;20522;-86
2022/05/24 04:55:53;;;;;;;32.78;25.25;;;14.00;1.00;;;;;;5042881;28;20272;-85
2022/05/24 04:58:20;;;;;;;39.80;27.40;;;14.00;99.90;;;;;;5033814;28;20114;-86
2022/05/24 05:00:48;;;;;;;40.88;26.30;;;14.10;1.00;;;;;;5041035;28;20468;-86
2022/05/24 05:03:17;;;;;;;35.67;25.75;;;14.20;1.00;;;;;;5050929;28;20095;-86
2022/05/24 05:05:44;;;;;;;33.28;24.75;;;14.20;1.00;;;;;;5049839;28;20056;-86
2022/05/24 05:08:10;;;;;;;31.65;23.33;;;14.20;1.00;;;;;;5039207;28;20037;-86
2022/05/24 05:10:37;;;;;;;30.30;23.73;;;14.30;1.00;;;;;;5027787;28;20094;-86
2022/05/24 05:13:05;;;;;;;29.98;22.70;;;14.30;99.90;;;;;;5019435;28;20256;-86
2022/05/24 05:15:34;;;;;;;29.17;22.23;;;14.30;99.90;;;;;;5022293;28;20126;-86
2022/05/24 05:18:09;;;;;;;30.98;22.75;;;14.30;99.90;;;;;;5022610;28;20134;-86
2022/05/24 05:20:41;;;;;;;30.42;22.42;;;14.30;99.90;;;;;;5051935;28;20045;-86
2022/05/24 05:23:09;;;;;;;27.98;22.00;;;14.30;99.90;;;;;;5039726;28;20087;-86
2022/05/24 05:25:34;;;;;;;27.83;20.90;;;14.30;99.90;;;;;;5067142;28;20538;-86
2022/05/24 05:28:00;;;;;;;26.25;20.33;;;14.20;99.90;;;;;;5051468;28;20037;-86
2022/05/24 05:33:10;;;;;;;28.50;21.02;;;14.20;99.90;;;;;;5068428;28;20045;-87
2022/05/24 05:35:36;;;;;;;27.30;21.20;;;14.10;99.90;;;;;;5051117;28;20040;-86
2022/05/24 05:38:02;;;;;;;30.15;21.20;;;14.20;99.90;;;;;;5054467;28;20077;-86
2022/05/24 05:40:28;;;;;;;26.73;20.55;;;14.00;99.90;;;;;;5028285;28;20083;-86
2022/05/24 05:42:53;;;;;;;28.75;20.65;;;14.00;99.90;;;;;;5026669;28;20048;-85
2022/05/24 05:45:19;;;;;;;27.75;19.13;;;14.10;1.00;;;;;;5024856;28;20044;-87
2022/05/24 05:47:45;;;;;;;28.83;20.92;;;14.20;99.90;;;;;;5045637;28;20044;-86
2022/05/24 05:50:11;;;;;;;31.02;21.45;;;14.40;1.00;;;;;;5044519;28;20456;-86
2022/05/24 05:52:37;;;;;;;31.10;22.35;;;14.30;99.90;;;;;;5032339;28;20037;-86
2022/05/24 05:55:03;;;;;;;34.13;22.45;;;14.40;99.90;;;;;;5026163;28;20044;-86
2022/05/24 05:57:28;;;;;;;30.65;21.20;;;14.50;99.90;;;;;;5029405;28;20724;-86
2022/05/24 05:59:54;;;;;;;27.00;20.60;;;14.60;1.00;;;;;;5028138;28;20093;-86
2022/05/24 06:02:20;;;;;;;31.50;20.45;;;14.60;1.00;;;;;;5047319;28;20052;-87
2022/05/24 06:04:46;;;;;;;27.60;18.95;;;14.50;1.00;;;;;;5030398;28;20033;-86
2022/05/24 06:07:11;;;;;;;26.08;18.90;;;14.50;1.00;;;;;;5046410;28;20040;-86
2022/05/24 06:09:37;;;;;;;26.95;17.63;;;14.70;8.20;;;;;;5052728;28;20058;-86
2022/05/24 06:12:04;;;;;;;27.27;18.15;;;14.50;1.00;;;;;;5046460;28;20040;-86
2022/05/24 06:14:32;;;;;;;25.17;18.40;;;14.60;1.00;;;;;;5036149;28;20617;-86
2022/05/24 06:16:57;;;;;;;26.58;18.63;;;14.80;1.00;;;;;;5024627;28;20037;-86
2022/05/24 06:19:23;;;;;;;25.92;18.60;;;14.90;1.00;;;;;;5030480;28;20040;-86
2022/05/24 06:21:49;;;;;;;26.13;17.15;;;15.10;1.00;;;;;;5043452;28;20109;-86
2022/05/24 06:24:15;;;;;;;25.52;17.05;;;15.10;99.90;;;;;;5021544;28;20515;-85
2022/05/24 06:26:41;;;;;;;30.98;17.75;;;15.00;99.90;;;;;;5049448;28;20152;-86
2022/05/24 06:29:07;;;;;;;23.50;16.15;;;15.10;1.00;;;;;;5026870;28;20136;-86
2022/05/24 06:31:33;;;;;;;26.33;15.52;;;15.00;99.90;;;;;;5044806;28;20248;-86
2022/05/24 06:34:01;;;;;;;23.00;15.00;;;15.10;99.90;;;;;;5027372;28;20041;-86
2022/05/24 06:36:27;;;;;;;21.00;14.65;;;15.30;99.90;;;;;;5050836;28;20047;-86
2022/05/24 06:38:52;;;;;;;21.65;16.02;;;15.40;99.90;;;;;;5024142;28;20036;-86
2022/05/24 06:41:18;;;;;;;21.83;14.90;;;15.70;99.90;;;;;;5045012;28;20044;-85
2022/05/24 06:43:43;;;;;;;23.63;14.48;;;15.70;99.90;;;;;;5025813;28;20235;-86
2022/05/24 06:46:09;;;;;;;19.65;14.75;;;15.50;99.90;;;;;;5024565;28;20119;-86
2022/05/24 06:48:37;;;;;;;18.85;14.52;;;15.60;99.90;;;;;;5026447;28;20041;-86
2022/05/24 06:51:15;;;;;;;20.60;14.35;;;15.60;99.90;;;;;;5045108;28;20038;-85
2022/05/24 06:53:42;;;;;;;19.98;14.88;;;15.40;99.90;;;;;;5047515;28;20492;-86
2022/05/24 06:56:08;;;;;;;19.42;13.98;;;15.60;99.90;;;;;;5043783;28;20444;-86
2022/05/24 06:58:34;;;;;;;20.70;14.32;;;15.50;99.90;;;;;;5022497;28;20641;-86
2022/05/24 07:03:45;;;;;;;25.52;14.85;;;15.40;99.90;;;;;;5043113;28;20041;-85
2022/05/24 07:06:12;;;;;;;22.52;13.77;;;15.30;99.90;;;;;;5026521;28;20033;-86
2022/05/24 07:08:39;;;;;;;19.17;13.23;;;15.50;99.90;;;;;;5039305;28;20028;-86
2022/05/24 07:11:05;;;;;;;20.50;13.30;;;15.60;99.90;;;;;;5028203;28;20037;-85
2022/05/24 07:13:31;;;;;;;20.92;12.20;;;15.70;99.90;;;;;;5055224;28;20040;-85
2022/05/24 07:15:56;;;;;;;18.88;12.80;;;15.70;99.90;;;;;;5027169;28;20045;-85
2022/05/24 07:18:22;;;;;;;21.85;12.73;;;15.80;99.90;;;;;;5024297;28;20136;-85
2022/05/24 07:20:48;;;;;;;18.08;11.88;;;15.70;99.90;;;;;;5024811;28;20352;-86
2022/05/24 07:23:19;;;;;;;17.63;12.18;;;15.40;99.90;;;;;;5025518;28;20052;-86
2022/05/24 07:25:46;;;;;;;22.67;12.38;;;15.10;99.90;;;;;;5049110;28;20034;-85
2022/05/24 07:28:17;;;;;;;18.27;12.20;;;14.80;99.90;;;;;;5029678;28;20037;-86
2022/05/24 07:30:44;;;;;;;20.08;12.75;;;15.00;99.90;;;;;;5052111;28;20064;-88
2022/05/24 07:33:12;;;;;;;16.15;12.52;;;14.80;99.90;;;;;;5041812;28;20061;-87
2022/05/24 07:35:38;;;;;;;18.20;13.43;;;14.80;99.90;;;;;;5044045;28;20879;-88
2022/05/24 07:38:09;;;;;;;19.95;13.05;;;14.80;1.00;;;;;;5024823;28;20396;-87
2022/05/24 07:46:19;;;;;;;16.67;12.27;;;14.50;1.00;;;;;;5064106;28;20392;-87
2022/05/24 07:48:44;;;;;;;18.95;12.45;;;14.50;1.00;;;;;;5054091;28;20041;-87
2022/05/24 07:51:10;;;;;;;18.85;12.10;;;14.70;1.00;;;;;;5053804;28;20048;-86
2022/05/24 07:53:37;;;;;;;20.10;13.32;;;14.70;99.90;;;;;;5053904;28;20051;-86
2022/05/24 07:56:03;;;;;;;21.55;12.80;;;14.90;99.90;;;;;;5053416;28;20459;-87
2022/05/24 07:58:32;;;;;;;18.83;12.23;;;15.10;99.90;;;;;;5064473;28;20119;-86
2022/05/24 08:00:59;;;;;;;21.08;12.38;;;15.30;99.90;;;;;;5059760;28;20365;-86
2022/05/24 08:03:26;;;;;;;18.70;11.57;;;15.40;99.90;;;;;;5042684;28;20525;-87
2022/05/24 08:05:51;;;;;;;18.75;11.57;;;15.40;99.90;;;;;;5045132;28;20052;-87
2022/05/24 08:08:17;;;;;;;17.38;12.20;;;15.30;99.90;;;;;;5072965;28;20049;-86
2022/05/24 08:10:44;;;;;;;18.73;11.48;;;15.40;99.90;;;;;;5059843;28;20040;-87
2022/05/24 08:13:13;;;;;;;18.73;11.27;;;15.60;99.90;;;;;;5057331;28;20047;-86
2022/05/24 08:15:39;;;;;;;19.10;11.68;;;15.90;99.90;;;;;;5056741;28;20102;-86
2022/05/24 08:18:05;;;;;;;15.93;11.63;;;16.00;99.90;;;;;;5071854;28;20383;-87
2022/05/24 08:20:33;;;;;;;17.98;11.10;;;15.80;99.90;;;;;;5067581;28;20040;-86
2022/05/24 08:22:59;;;;;;;18.77;11.75;;;16.00;99.90;;;;;;5039764;28;20029;-86
2022/05/24 08:25:28;;;;;;;16.38;11.07;;;16.00;99.90;;;;;;5048209;28;20234;-86
2022/05/24 08:27:55;;;;;;;15.63;11.23;;;16.20;99.90;;;;;;5043874;28;20384;-86
2022/05/24 08:30:21;;;;;;;11.85;10.15;;;16.30;87.20;;;;;;5040358;28;20083;-86
2022/05/24 08:32:48;;;;;;;15.45;10.93;;;16.20;99.60;;;;;;5055658;28;20077;-86
2022/05/24 08:35:16;;;;;;;16.95;10.65;;;16.50;94.60;;;;;;5071523;28;20103;-86
2022/05/24 08:37:46;;;;;;;17.88;10.73;;;16.30;97.40;;;;;;5045447;28;20044;-86
2022/05/24 08:40:16;;;;;;;15.88;9.85;;;16.60;85.90;;;;;;5078534;28;20040;-86
2022/05/24 08:43:09;;;;;;;11.95;9.18;;;16.80;1.00;;;;;;5042235;28;20583;-86
2022/05/24 08:48:39;;;;;;;15.68;9.93;;;16.40;1.00;;;;;;5065355;28;20460;-86
2022/05/24 08:51:21;;;;;;;15.68;9.27;;;16.80;1.00;;;;;;5053781;28;20098;-85
2022/05/24 08:53:50;;;;;;;18.17;9.30;;;16.80;1.00;;;;;;5024245;28;20037;-86
2022/05/24 08:56:45;;;;;;;11.68;8.63;;;16.80;1.00;;;;;;5050588;28;20098;-86
2022/05/24 08:59:28;;;;;;;11.80;8.77;;;16.70;1.00;;;;;;5022800;28;20041;-86
2022/05/24 09:01:56;;;;;;;12.98;8.82;;;16.40;1.00;;;;;;5055419;28;20196;-86
2022/05/24 09:04:24;;;;;;;15.07;9.23;;;16.30;1.00;;;;;;5030862;28;20033;-86
2022/05/24 09:07:04;;;;;;;11.43;8.32;;;16.50;1.00;;;;;;5029636;28;20052;-85
2022/05/24 09:09:32;;;;;;;15.32;8.35;;;16.40;1.00;;;;;;5040443;28;20040;-86
2022/05/24 09:12:37;;;;;;;9.85;7.50;;;16.40;1.00;;;;;;5038355;28;20041;-86
2022/05/24 09:15:32;;;;;;;9.75;7.43;;;16.20;1.00;;;;;;5033210;28;20453;-86
2022/05/24 09:18:04;;;;;;;11.77;7.75;;;15.90;1.00;;;;;;5064045;28;20052;-86
2022/05/24 09:20:39;;;;;;;11.60;7.32;;;15.90;1.00;;;;;;5042884;28;20096;-86
2022/05/24 09:23:25;;;;;;;9.18;7.05;;;15.90;1.00;;;;;;5027422;28;20535;-87
2022/05/24 09:26:13;;;;;;;11.25;6.38;;;16.10;1.00;;;;;;5055746;28;21026;-86
2022/05/24 09:28:50;;;;;;;10.57;6.60;;;16.50;99.90;;;;;;5011539;28;20033;-86
2022/05/24 09:31:24;;;;;;;4.53;2.72;;;16.10;1.00;;;;;;5036517;28;20051;-85
2022/05/24 09:33:56;;;;;;;3.85;1.73;;;15.60;99.90;;;;;;5032467;28;20330;-85
2022/05/24 09:36:32;;;;;;;4.25;1.70;;;15.10;99.90;;;;;;5009821;28;20045;-86
2022/05/24 09:38:59;;;;;;;3.15;1.60;;;14.80;1.00;;;;;;5032867;28;20468;-86
2022/05/24 09:41:24;;;;;;;2.20;1.20;;;14.50;1.00;;;;;;5034776;28;20033;-86
2022/05/24 09:44:06;;;;;;;6.97;1.38;;;14.30;1.00;;;;;;5028316;28;20032;-89
2022/05/24 09:46:36;;;;;;;3.58;1.10;;;14.20;1.00;;;;;;5027508;28;20051;-88
2022/05/24 09:49:27;;;;;;;1.00;0.90;;;14.00;1.00;;;;;;5028973;28;20484;-87
2022/05/24 09:51:56;;;;;;;3.33;1.20;;;14.00;1.00;;;;;;5055591;28;20468;-86
2022/05/24 09:54:26;;;;;;;1.30;1.10;;;14.20;41.10;;;;;;5032168;28;20116;-86
2022/05/24 09:57:00;;;;;;;3.90;1.30;;;14.40;10.40;;;;;;5035853;28;20124;-86
2022/05/24 09:59:28;;;;;;;3.10;1.60;;;14.30;1.00;;;;;;5055792;28;20038;-86
2022/05/24 10:01:54;;;;;;;2.55;1.25;;;14.40;1.00;;;;;;5025757;28;20049;-86
2022/05/24 10:04:27;;;;;;;2.90;1.40;;;14.80;1.00;;;;;;5033866;28;20037;-86
2022/05/24 10:07:00;;;;;;;3.72;1.77;;;15.10;1.00;;;;;;5050624;28;20044;-87
2022/05/24 10:09:55;;;;;;;2.50;1.60;;;15.00;1.00;;;;;;5050200;28;20048;-87
2022/05/24 10:12:52;;;;;;;2.55;1.70;;;15.30;65.40;;;;;;5032101;28;20080;-87
2022/05/24 10:15:54;;;;;;;6.97;2.20;;;15.50;1.00;;;;;;5068819;28;20388;-86
2022/05/24 10:18:58;;;;;;;4.00;2.33;;;16.30;1.00;;;;;;5040270;28;20047;-86
2022/05/24 10:21:29;;;;;;;5.30;2.38;;;16.70;1.00;;;;;;5044927;28;20135;-86
2022/05/24 10:24:23;;;;;;;3.90;2.47;;;16.70;99.90;;;;;;5043494;28;20156;-86
2022/05/24 10:27:01;;;;;;;3.45;2.55;;;16.80;1.00;;;;;;5043067;28;20079;-86
2022/05/24 10:30:00;;;;;;;2.95;2.40;;;17.10;1.00;;;;;;5022063;28;20048;-86
2022/05/24 10:39:02;;;;;;;3.03;1.95;;;15.70;1.00;;;;;;5070515;28;20128;-89
2022/05/24 10:41:37;;;;;;;3.60;1.38;;;15.10;1.00;;;;;;5036568;28;20067;-89
2022/05/24 10:44:13;;;;;;;;;;;14.50;14.00;;;;;;5048201;28;20120;-88
2022/05/24 10:46:49;;;;;;;2.63;0.90;;;14.40;1.90;;;;;;5041024;28;19983;-87
2022/05/24 10:49:30;;;;;;;0.80;0.80;;;14.20;1.00;;;;;;5056447;28;20052;-87
2022/05/24 10:52:06;;;;;;;1.63;1.10;;;14.10;65.90;;;;;;5026908;28;20041;-86
2022/05/24 10:54:50;;;;;;;1.17;0.90;;;14.40;32.90;;;;;;5021729;28;20049;-86
2022/05/24 10:57:31;;;;;;;0.80;0.80;;;14.50;43.40;;;;;;5041349;28;20040;-87
2022/05/24 11:00:12;;;;;;;2.83;0.95;;;15.10;2.40;;;;;;5025712;28;20115;-87
2022/05/24 11:03:12;;;;;;;2.65;0.98;;;15.90;31.10;;;;;;5015119;28;20140;-87
2022/05/24 11:06:06;;;;;;;2.17;1.23;;;15.70;32.10;;;;;;5038428;28;20041;-86
2022/05/24 11:08:47;;;;;;;2.30;1.25;;;15.40;1.00;;;;;;5034074;28;20437;-86
2022/05/24 11:11:36;;;;;;;3.17;1.38;;;15.50;1.00;;;;;;5040957;28;20106;-86
2022/05/24 11:14:04;;;;;;;1.90;1.40;;;15.90;1.00;;;;;;5039077;28;20039;-86
2022/05/24 11:16:41;;;;;;;2.22;1.67;;;16.00;20.80;;;;;;5022714;28;20077;-86
2022/05/24 11:19:17;;;;;;;4.18;1.80;;;15.60;5.30;;;;;;5020333;28;20102;-87
2022/05/24 11:22:01;;;;;;;3.13;2.17;;;15.40;18.70;;;;;;5041563;28;20051;-86
2022/05/24 11:24:32;;;;;;;4.63;2.20;;;15.30;1.00;;;;;;5067026;28;20360;-86
2022/05/24 11:27:00;;;;;;;6.07;2.80;;;15.30;78.10;;;;;;5020913;28;20040;-87
2022/05/24 11:29:43;;;;;;;2.60;2.40;;;15.40;99.90;;;;;;5035928;28;20077;-87
2022/05/24 11:32:11;;;;;;;3.53;2.63;;;15.90;99.90;;;;;;5046950;28;20116;-87
2022/05/24 11:34:59;;;;;;;6.22;2.40;;;16.00;99.90;;;;;;5014423;28;20037;-86
2022/05/24 11:37:31;;;;;;;3.38;2.10;;;16.50;99.90;;;;;;5055695;28;20144;-86
2022/05/24 11:40:27;;;;;;;3.30;2.00;;;16.00;1.00;;;;;;5058518;28;20075;-86
2022/05/24 11:42:53;;;;;;;5.07;2.00;;;16.30;1.00;;;;;;5030509;28;20033;-86
2022/05/24 11:45:34;;;;;;;2.83;2.00;;;16.70;99.90;;;;;;5047362;28;20043;-86
2022/05/24 11:48:00;;;;;;;3.08;2.03;;;17.50;99.90;;;;;;5053601;28;20048;-86
2022/05/24 11:50:31;;;;;;;2.70;1.77;;;17.60;99.90;;;;;;5029372;28;20044;-87
2022/05/24 11:53:09;;;;;;;5.32;1.58;;;16.90;99.90;;;;;;5045596;28;20558;-86
2022/05/24 11:55:46;;;;;;;2.10;1.40;;;16.40;1.00;;;;;;5025682;28;20043;-85
2022/05/24 11:58:21;;;;;;;3.38;1.67;;;16.50;99.90;;;;;;5071276;28;20083;-86
2022/05/24 12:00:58;;;;;;;;;;;16.30;99.90;;;;;;5044751;28;20541;-86
2022/05/24 12:09:21;;;;;;;3.33;1.55;;;15.80;99.90;;;;;;5026615;28;20143;-86
2022/05/24 12:11:48;;;;;;;2.90;1.42;;;16.00;99.90;;;;;;5063876;28;20125;-86
2022/05/24 12:14:36;;;;;;;3.17;1.10;;;17.20;1.00;;;;;;5046138;28;20036;-86
2022/05/24 12:17:02;;;;;;;6.18;1.60;;;17.40;99.90;;;;;;5021134;28;20365;-86
2022/05/24 12:19:49;;;;;;;2.33;1.25;;;17.10;99.90;;;;;;5012752;28;20304;-87
2022/05/24 12:22:32;;;;;;;7.05;1.38;;;17.10;99.90;;;;;;5050064;28;20029;-87
2022/05/24 12:25:04;;;;;;;2.78;1.33;;;17.60;99.90;;;;;;5055961;28;20079;-86
2022/05/24 12:27:47;;;;;;;1.63;0.93;;;17.20;99.90;;;;;;5023142;28;20471;-86
2022/05/24 12:30:25;;;;;;;2.15;0.95;;;17.00;99.90;;;;;;5024870;28;20380;-87
2022/05/24 12:32:52;;;;;;;3.70;1.05;;;16.80;99.90;;;;;;5042029;28;20044;-87
2022/05/24 12:35:20;;;;;;;2.65;1.05;;;17.20;99.90;;;;;;5055669;28;20057;-86
2022/05/24 12:37:54;;;;;;;1.55;0.80;;;16.90;99.90;;;;;;5040086;28;20442;-87
2022/05/24 12:40:27;;;;;;;1.98;0.80;;;16.20;99.90;;;;;;5019322;28;20168;-92
2022/05/24 12:42:55;;;;;;;4.05;0.90;;;14.90;99.90;;;;;;5044638;28;20328;-91
2022/05/24 12:45:33;;;;;;;1.33;0.70;;;13.70;1.00;;;;;;5031238;28;20528;-92
2022/05/24 12:47:59;;;;;;;1.30;0.52;;;13.70;1.00;;;;;;5041140;28;20098;-88
2022/05/24 12:50:33;;;;;;;3.40;0.80;;;13.60;54.10;;;;;;5020881;28;20071;-87
2022/05/24 12:53:03;;;;;;;2.70;1.10;;;14.20;99.90;;;;;;5058270;28;20041;-86
2022/05/24 12:58:24;;;;;;;5.07;1.17;;;15.50;97.30;;;;;;5041317;28;20082;-86
2022/05/24 13:00:49;;;;;;;3.35;1.70;;;16.10;1.00;;;;;;5034149;28;20322;-85
2022/05/24 13:03:23;;;;;;;3.70;1.42;;;16.80;1.00;;;;;;5056563;28;20037;-87
2022/05/24 13:05:55;;;;;;;4.15;1.70;;;17.60;8.70;;;;;;5028219;28;20044;-87
2022/05/24 13:08:21;;;;;;;3.58;1.50;;;18.10;99.90;;;;;;5053336;28;20388;-87
2022/05/24 13:10:50;;;;;;;4.95;1.60;;;17.90;99.90;;;;;;5019776;28;20457;-86
2022/05/24 13:13:22;;;;;;;3.05;1.50;;;17.60;99.90;;;;;;5025870;28;20129;-86
2022/05/24 13:15:52;;;;;;;4.28;1.30;;;17.40;1.00;;;;;;5074481;28;20044;-86
2022/05/24 13:18:26;;;;;;;3.50;1.02;;;16.80;99.90;;;;;;5044967;28;20135;-87
2022/05/24 13:21:00;;;;;;;2.75;1.00;;;16.30;99.90;;;;;;5028703;28;20411;-87
2022/05/24 13:23:36;;;;;;;1.38;0.70;;;15.80;99.90;;;;;;5025333;28;20043;-86
2022/05/24 13:26:02;;;;;;;3.03;1.10;;;15.40;99.90;;;;;;5027355;28;20090;-86
2022/05/24 13:28:51;;;;;;;6.68;2.35;;;15.20;99.90;;;;;;5042366;28;20037;-86
2022/05/24 13:34:29;;;;;;;3.33;1.40;;;15.20;99.90;;;;;;5055762;28;20466;-86
2022/05/24 13:37:07;;;;;;;4.60;1.50;;;15.60;99.90;;;;;;5058693;28;20041;-86
2022/05/24 13:39:39;;;;;;;3.55;1.50;;;16.40;99.90;;;;;;5071053;28;20049;-87
2022/05/24 13:42:26;;;;;;;5.35;2.30;;;17.00;99.90;;;;;;5038625;28;20044;-86
2022/05/24 13:45:14;;;;;;;3.47;2.00;;;17.00;99.90;;;;;;5036276;28;20048;-87
2022/05/24 13:47:50;;;;;;;3.15;1.60;;;16.10;99.90;;;;;;5030214;28;20273;-86
2022/05/24 13:50:41;;;;;;;6.85;2.20;;;15.50;99.90;;;;;;5018550;28;20036;-92